sensor_id;sensor_type;location;lat;lon;timestamp;temperature;humidity
7564;DHT22;3823;53.586;10.040;2023-12-04T00:00:41;-0.30;1.00
7564;DHT22;3823;53.586;10.040;2023-12-04T00:03:06;-0.30;1.00
7564;DHT22;3823;53.586;10.040;2023-12-04T00:05:32;-0.40;1.00
7564;DHT22;3823;53.586;10.040;2023-12-04T00:07:58;-0.40;1.00
7564;DHT22;3823;53.586;10.040;2023-12-04T00:10:23;-0.50;1.00
7564;DHT22;3823;53.586;10.040;2023-12-04T00:12:49;-0.50;1.00
7564;DHT22;3823;53.586;10.040;2023-12-04T00:15:15;-0.50;1.00
7564;DHT22;3823;53.586;10.040;2023-12-04T00:17:41;-0.50;1.00
7564;DHT22;3823;53.586;10.040;2023-12-04T00:20:08;-0.60;1.00
7564;DHT22;3823;53.586;10.040;2023-12-04T00:22:35;-0.60;1.00
7564;DHT22;3823;53.586;10.040;2023-12-04T00:25:01;-0.60;1.00
7564;DHT22;3823;53.586;10.040;2023-12-04T00:27:28;-0.60;1.00
7564;DHT22;3823;53.586;10.040;2023-12-04T00:29:54;-0.60;1.00
7564;DHT22;3823;53.586;10.040;2023-12-04T00:32:19;-0.70;1.00
7564;DHT22;3823;53.586;10.040;2023-12-04T00:34:45;-0.70;1.00
7564;DHT22;3823;53.586;10.040;2023-12-04T00:37:11;-0.80;1.00
7564;DHT22;3823;53.586;10.040;2023-12-04T00:39:37;-0.80;1.00
7564;DHT22;3823;53.586;10.040;2023-12-04T00:42:02;-0.80;1.00
7564;DHT22;3823;53.586;10.040;2023-12-04T00:44:28;-0.80;1.00
7564;DHT22;3823;53.586;10.040;2023-12-04T00:46:54;-0.80;1.00
7564;DHT22;3823;53.586;10.040;2023-12-04T00:49:19;-0.90;1.00
7564;DHT22;3823;53.586;10.040;2023-12-04T00:51:45;-0.90;1.00
7564;DHT22;3823;53.586;10.040;2023-12-04T00:54:11;-0.90;1.00
7564;DHT22;3823;53.586;10.040;2023-12-04T00:56:40;-0.90;1.00
7564;DHT22;3823;53.586;10.040;2023-12-04T00:59:07;-0.90;1.00
7564;DHT22;3823;53.586;10.040;2023-12-04T01:01:33;-1.00;1.00
7564;DHT22;3823;53.586;10.040;2023-12-04T01:03:59;-1.00;1.00
7564;DHT22;3823;53.586;10.040;2023-12-04T01:06:25;-0.90;1.00
7564;DHT22;3823;53.586;10.040;2023-12-04T01:08:51;-0.90;1.00
7564;DHT22;3823;53.586;10.040;2023-12-04T01:11:17;-0.90;1.00
7564;DHT22;3823;53.586;10.040;2023-12-04T01:13:42;-0.90;1.00
7564;DHT22;3823;53.586;10.040;2023-12-04T01:16:08;-1.00;1.00
7564;DHT22;3823;53.586;10.040;2023-12-04T01:18:35;-1.00;1.00
7564;DHT22;3823;53.586;10.040;2023-12-04T01:21:00;-1.00;1.00
7564;DHT22;3823;53.586;10.040;2023-12-04T01:23:26;-1.00;1.00
7564;DHT22;3823;53.586;10.040;2023-12-04T01:25:51;-1.00;1.00
7564;DHT22;3823;53.586;10.040;2023-12-04T01:28:17;-1.10;1.00
7564;DHT22;3823;53.586;10.040;2023-12-04T01:30:42;-1.10;1.00
7564;DHT22;3823;53.586;10.040;2023-12-04T01:33:08;-1.10;1.00
7564;DHT22;3823;53.586;10.040;2023-12-04T01:35:34;-1.10;1.00
7564;DHT22;3823;53.586;10.040;2023-12-04T01:37:59;-1.10;1.00
7564;DHT22;3823;53.586;10.040;2023-12-04T01:40:26;-1.10;1.00
7564;DHT22;3823;53.586;10.040;2023-12-04T01:42:52;-1.10;1.00
7564;DHT22;3823;53.586;10.040;2023-12-04T01:45:17;-1.10;1.00
7564;DHT22;3823;53.586;10.040;2023-12-04T01:47:44;-1.10;1.00
7564;DHT22;3823;53.586;10.040;2023-12-04T01:50:11;-1.10;1.00
7564;DHT22;3823;53.586;10.040;2023-12-04T01:52:37;-1.10;1.00
7564;DHT22;3823;53.586;10.040;2023-12-04T01:55:04;-1.10;1.00
7564;DHT22;3823;53.586;10.040;2023-12-04T01:57:30;-1.10;1.00
7564;DHT22;3823;53.586;10.040;2023-12-04T01:59:56;-1.10;1.00
7564;DHT22;3823;53.586;10.040;2023-12-04T02:02:22;-1.10;1.00
7564;DHT22;3823;53.586;10.040;2023-12-04T02:04:47;-1.10;1.00
7564;DHT22;3823;53.586;10.040;2023-12-04T02:07:13;-1.10;1.00
7564;DHT22;3823;53.586;10.040;2023-12-04T02:09:38;-1.10;1.00
7564;DHT22;3823;53.586;10.040;2023-12-04T02:12:05;-1.20;1.00
7564;DHT22;3823;53.586;10.040;2023-12-04T02:14:30;-1.20;1.00
7564;DHT22;3823;53.586;10.040;2023-12-04T02:16:56;-1.20;1.00
7564;DHT22;3823;53.586;10.040;2023-12-04T02:19:23;-1.20;1.00
7564;DHT22;3823;53.586;10.040;2023-12-04T02:21:49;-1.20;1.00
7564;DHT22;3823;53.586;10.040;2023-12-04T02:24:14;-1.20;1.00
7564;DHT22;3823;53.586;10.040;2023-12-04T02:27:10;-1.20;1.00
7564;DHT22;3823;53.586;10.040;2023-12-04T02:29:59;-1.20;1.00
7564;DHT22;3823;53.586;10.040;2023-12-04T02:32:29;-1.20;1.00
7564;DHT22;3823;53.586;10.040;2023-12-04T02:34:56;-1.20;1.00
7564;DHT22;3823;53.586;10.040;2023-12-04T02:37:23;-1.10;1.00
7564;DHT22;3823;53.586;10.040;2023-12-04T02:39:50;-1.10;1.00
7564;DHT22;3823;53.586;10.040;2023-12-04T02:42:18;-1.20;1.00
7564;DHT22;3823;53.586;10.040;2023-12-04T02:44:44;-1.20;1.00
7564;DHT22;3823;53.586;10.040;2023-12-04T02:47:10;-1.10;1.00
7564;DHT22;3823;53.586;10.040;2023-12-04T02:49:36;-1.10;1.00
7564;DHT22;3823;53.586;10.040;2023-12-04T02:52:01;-1.20;1.00
7564;DHT22;3823;53.586;10.040;2023-12-04T02:54:28;-1.20;1.00
7564;DHT22;3823;53.586;10.040;2023-12-04T02:56:54;-1.20;1.00
7564;DHT22;3823;53.586;10.040;2023-12-04T02:59:19;-1.30;1.00
7564;DHT22;3823;53.586;10.040;2023-12-04T03:01:45;-1.20;1.00
7564;DHT22;3823;53.586;10.040;2023-12-04T03:04:11;-1.20;1.00
7564;DHT22;3823;53.586;10.040;2023-12-04T03:06:36;-1.20;1.00
7564;DHT22;3823;53.586;10.040;2023-12-04T03:09:03;-1.20;1.00
7564;DHT22;3823;53.586;10.040;2023-12-04T03:11:29;-1.20;1.00
7564;DHT22;3823;53.586;10.040;2023-12-04T03:13:54;-1.20;1.00
7564;DHT22;3823;53.586;10.040;2023-12-04T03:16:20;-1.20;1.00
7564;DHT22;3823;53.586;10.040;2023-12-04T03:18:46;-1.10;1.00
7564;DHT22;3823;53.586;10.040;2023-12-04T03:21:12;-1.10;1.00
7564;DHT22;3823;53.586;10.040;2023-12-04T03:23:37;-1.10;1.00
7564;DHT22;3823;53.586;10.040;2023-12-04T03:26:03;-1.10;1.00
7564;DHT22;3823;53.586;10.040;2023-12-04T03:28:29;-1.10;1.00
7564;DHT22;3823;53.586;10.040;2023-12-04T03:30:54;-1.10;1.00
7564;DHT22;3823;53.586;10.040;2023-12-04T03:33:20;-1.10;1.00
7564;DHT22;3823;53.586;10.040;2023-12-04T03:35:46;-1.10;1.00
7564;DHT22;3823;53.586;10.040;2023-12-04T03:38:11;-1.10;1.00
7564;DHT22;3823;53.586;10.040;2023-12-04T03:40:37;-1.10;1.00
7564;DHT22;3823;53.586;10.040;2023-12-04T03:43:02;-1.00;1.00
7564;DHT22;3823;53.586;10.040;2023-12-04T03:45:28;-1.00;1.00
7564;DHT22;3823;53.586;10.040;2023-12-04T03:47:53;-1.00;1.00
7564;DHT22;3823;53.586;10.040;2023-12-04T03:50:19;-1.10;1.00
7564;DHT22;3823;53.586;10.040;2023-12-04T03:52:45;-1.10;1.00
7564;DHT22;3823;53.586;10.040;2023-12-04T03:55:10;-1.10;1.00
7564;DHT22;3823;53.586;10.040;2023-12-04T03:57:36;-1.10;1.00
7564;DHT22;3823;53.586;10.040;2023-12-04T04:00:01;-1.10;1.00
7564;DHT22;3823;53.586;10.040;2023-12-04T04:02:28;-1.00;1.00
7564;DHT22;3823;53.586;10.040;2023-12-04T04:04:54;-1.00;1.00
7564;DHT22;3823;53.586;10.040;2023-12-04T04:07:20;-1.00;1.00
7564;DHT22;3823;53.586;10.040;2023-12-04T04:09:45;-1.10;1.00
7564;DHT22;3823;53.586;10.040;2023-12-04T04:12:11;-1.10;1.00
7564;DHT22;3823;53.586;10.040;2023-12-04T04:14:37;-1.10;1.00
7564;DHT22;3823;53.586;10.040;2023-12-04T04:17:02;-1.10;1.00
7564;DHT22;3823;53.586;10.040;2023-12-04T04:19:29;-1.10;1.00
7564;DHT22;3823;53.586;10.040;2023-12-04T04:21:54;-1.10;1.00
7564;DHT22;3823;53.586;10.040;2023-12-04T04:24:20;-1.10;1.00
7564;DHT22;3823;53.586;10.040;2023-12-04T04:26:45;-1.10;1.00
7564;DHT22;3823;53.586;10.040;2023-12-04T04:29:11;-1.00;1.00
7564;DHT22;3823;53.586;10.040;2023-12-04T04:31:36;-1.00;1.00
7564;DHT22;3823;53.586;10.040;2023-12-04T04:34:02;-1.00;1.00
7564;DHT22;3823;53.586;10.040;2023-12-04T04:36:28;-1.00;1.00
7564;DHT22;3823;53.586;10.040;2023-12-04T04:38:53;-1.00;1.00
7564;DHT22;3823;53.586;10.040;2023-12-04T04:41:19;-1.00;1.00
7564;DHT22;3823;53.586;10.040;2023-12-04T04:43:44;-1.00;1.00
7564;DHT22;3823;53.586;10.040;2023-12-04T04:46:10;-1.10;1.00
7564;DHT22;3823;53.586;10.040;2023-12-04T04:48:36;-1.00;1.00
7564;DHT22;3823;53.586;10.040;2023-12-04T04:51:01;-1.00;1.00
7564;DHT22;3823;53.586;10.040;2023-12-04T04:53:27;-1.00;1.00
7564;DHT22;3823;53.586;10.040;2023-12-04T04:55:52;-1.00;1.00
7564;DHT22;3823;53.586;10.040;2023-12-04T04:58:18;-1.00;1.00
7564;DHT22;3823;53.586;10.040;2023-12-04T05:00:44;-1.00;1.00
7564;DHT22;3823;53.586;10.040;2023-12-04T05:03:10;-1.00;1.00
7564;DHT22;3823;53.586;10.040;2023-12-04T05:05:35;-1.10;1.00
7564;DHT22;3823;53.586;10.040;2023-12-04T05:08:01;-1.00;1.00
7564;DHT22;3823;53.586;10.040;2023-12-04T05:10:26;-1.00;1.00
7564;DHT22;3823;53.586;10.040;2023-12-04T05:12:52;-1.00;1.00
7564;DHT22;3823;53.586;10.040;2023-12-04T05:15:17;-0.90;1.00
7564;DHT22;3823;53.586;10.040;2023-12-04T05:17:43;-0.80;1.00
7564;DHT22;3823;53.586;10.040;2023-12-04T05:20:09;-0.70;1.00
7564;DHT22;3823;53.586;10.040;2023-12-04T05:22:34;-0.70;1.00
7564;DHT22;3823;53.586;10.040;2023-12-04T05:25:00;-0.70;1.00
7564;DHT22;3823;53.586;10.040;2023-12-04T05:27:26;-0.60;1.00
7564;DHT22;3823;53.586;10.040;2023-12-04T05:29:52;-0.60;1.00
7564;DHT22;3823;53.586;10.040;2023-12-04T05:32:17;-0.70;1.00
7564;DHT22;3823;53.586;10.040;2023-12-04T05:34:43;-0.70;1.00
7564;DHT22;3823;53.586;10.040;2023-12-04T05:37:09;-0.70;1.00
7564;DHT22;3823;53.586;10.040;2023-12-04T05:39:34;-0.70;1.00
7564;DHT22;3823;53.586;10.040;2023-12-04T05:42:00;-0.80;1.00
7564;DHT22;3823;53.586;10.040;2023-12-04T05:44:25;-0.80;1.00
7564;DHT22;3823;53.586;10.040;2023-12-04T05:46:51;-0.80;1.00
7564;DHT22;3823;53.586;10.040;2023-12-04T05:49:17;-0.90;1.00
7564;DHT22;3823;53.586;10.040;2023-12-04T05:51:43;-0.90;1.00
7564;DHT22;3823;53.586;10.040;2023-12-04T05:54:08;-1.00;1.00
7564;DHT22;3823;53.586;10.040;2023-12-04T05:56:34;-0.90;1.00
7564;DHT22;3823;53.586;10.040;2023-12-04T05:59:00;-0.90;1.00
7564;DHT22;3823;53.586;10.040;2023-12-04T06:01:25;-1.00;1.00
7564;DHT22;3823;53.586;10.040;2023-12-04T06:03:51;-1.00;1.00
7564;DHT22;3823;53.586;10.040;2023-12-04T06:06:16;-1.00;1.00
7564;DHT22;3823;53.586;10.040;2023-12-04T06:08:42;-1.00;1.00
7564;DHT22;3823;53.586;10.040;2023-12-04T06:11:08;-1.00;1.00
7564;DHT22;3823;53.586;10.040;2023-12-04T06:13:33;-0.90;1.00
7564;DHT22;3823;53.586;10.040;2023-12-04T06:15:59;-1.00;1.00
7564;DHT22;3823;53.586;10.040;2023-12-04T06:18:24;-1.00;1.00
7564;DHT22;3823;53.586;10.040;2023-12-04T06:20:50;-1.00;1.00
7564;DHT22;3823;53.586;10.040;2023-12-04T06:23:16;-1.00;1.00
7564;DHT22;3823;53.586;10.040;2023-12-04T06:25:42;-1.00;1.00
7564;DHT22;3823;53.586;10.040;2023-12-04T06:28:08;-1.00;1.00
7564;DHT22;3823;53.586;10.040;2023-12-04T06:30:34;-0.90;1.00
7564;DHT22;3823;53.586;10.040;2023-12-04T06:33:00;-0.90;1.00
7564;DHT22;3823;53.586;10.040;2023-12-04T06:35:26;-0.90;1.00
7564;DHT22;3823;53.586;10.040;2023-12-04T06:37:54;-1.00;1.00
7564;DHT22;3823;53.586;10.040;2023-12-04T06:40:20;-1.00;1.00
7564;DHT22;3823;53.586;10.040;2023-12-04T06:42:46;-1.00;1.00
7564;DHT22;3823;53.586;10.040;2023-12-04T06:45:12;-1.00;1.00
7564;DHT22;3823;53.586;10.040;2023-12-04T06:47:40;-1.00;1.00
7564;DHT22;3823;53.586;10.040;2023-12-04T06:50:06;-1.00;1.00
7564;DHT22;3823;53.586;10.040;2023-12-04T06:52:32;-1.00;1.00
7564;DHT22;3823;53.586;10.040;2023-12-04T06:54:57;-1.00;1.00
7564;DHT22;3823;53.586;10.040;2023-12-04T06:57:23;-1.10;1.00
7564;DHT22;3823;53.586;10.040;2023-12-04T06:59:48;-1.10;1.00
7564;DHT22;3823;53.586;10.040;2023-12-04T07:02:14;-1.10;1.00
7564;DHT22;3823;53.586;10.040;2023-12-04T07:04:39;-1.10;1.00
7564;DHT22;3823;53.586;10.040;2023-12-04T07:07:05;-1.10;1.00
7564;DHT22;3823;53.586;10.040;2023-12-04T07:09:32;-1.10;1.00
7564;DHT22;3823;53.586;10.040;2023-12-04T07:11:58;-1.10;1.00
7564;DHT22;3823;53.586;10.040;2023-12-04T07:14:23;-1.10;1.00
7564;DHT22;3823;53.586;10.040;2023-12-04T07:16:49;-1.10;1.00
7564;DHT22;3823;53.586;10.040;2023-12-04T07:19:15;-1.10;1.00
7564;DHT22;3823;53.586;10.040;2023-12-04T07:21:41;-1.10;1.00
7564;DHT22;3823;53.586;10.040;2023-12-04T07:24:07;-1.10;1.00
7564;DHT22;3823;53.586;10.040;2023-12-04T07:26:34;-1.10;1.00
7564;DHT22;3823;53.586;10.040;2023-12-04T07:29:00;-1.10;1.00
7564;DHT22;3823;53.586;10.040;2023-12-04T07:31:26;-1.00;1.00
7564;DHT22;3823;53.586;10.040;2023-12-04T07:33:55;-1.00;1.00
7564;DHT22;3823;53.586;10.040;2023-12-04T07:36:22;-1.00;1.00
7564;DHT22;3823;53.586;10.040;2023-12-04T07:38:47;-1.00;1.00
7564;DHT22;3823;53.586;10.040;2023-12-04T07:41:14;-1.10;1.00
7564;DHT22;3823;53.586;10.040;2023-12-04T07:43:40;-1.10;1.00
7564;DHT22;3823;53.586;10.040;2023-12-04T07:46:06;-1.10;1.00
7564;DHT22;3823;53.586;10.040;2023-12-04T07:48:31;-1.00;1.00
7564;DHT22;3823;53.586;10.040;2023-12-04T07:50:57;-1.00;1.00
7564;DHT22;3823;53.586;10.040;2023-12-04T07:53:22;-1.10;1.00
7564;DHT22;3823;53.586;10.040;2023-12-04T07:55:49;-1.10;1.00
7564;DHT22;3823;53.586;10.040;2023-12-04T07:58:17;-1.10;1.00
7564;DHT22;3823;53.586;10.040;2023-12-04T08:00:43;-1.10;1.00
7564;DHT22;3823;53.586;10.040;2023-12-04T08:03:09;-1.00;1.00
7564;DHT22;3823;53.586;10.040;2023-12-04T08:05:34;-1.00;1.00
7564;DHT22;3823;53.586;10.040;2023-12-04T08:08:00;-1.00;1.00
7564;DHT22;3823;53.586;10.040;2023-12-04T08:10:26;-0.90;1.00
7564;DHT22;3823;53.586;10.040;2023-12-04T08:12:52;-0.90;1.00
7564;DHT22;3823;53.586;10.040;2023-12-04T08:15:17;-0.90;1.00
7564;DHT22;3823;53.586;10.040;2023-12-04T08:17:43;-0.90;1.00
7564;DHT22;3823;53.586;10.040;2023-12-04T08:20:09;-0.90;1.00
7564;DHT22;3823;53.586;10.040;2023-12-04T08:22:42;-0.80;1.00
7564;DHT22;3823;53.586;10.040;2023-12-04T08:25:10;-0.80;1.00
7564;DHT22;3823;53.586;10.040;2023-12-04T08:27:35;-0.80;1.00
7564;DHT22;3823;53.586;10.040;2023-12-04T08:30:01;-0.80;1.00
7564;DHT22;3823;53.586;10.040;2023-12-04T08:32:27;-0.80;1.00
7564;DHT22;3823;53.586;10.040;2023-12-04T08:34:53;-0.80;1.00
7564;DHT22;3823;53.586;10.040;2023-12-04T08:37:19;-0.70;1.00
7564;DHT22;3823;53.586;10.040;2023-12-04T08:39:44;-0.70;1.00
7564;DHT22;3823;53.586;10.040;2023-12-04T08:42:11;-0.70;1.00
7564;DHT22;3823;53.586;10.040;2023-12-04T08:44:36;-0.60;1.00
7564;DHT22;3823;53.586;10.040;2023-12-04T08:47:02;-0.60;1.00
7564;DHT22;3823;53.586;10.040;2023-12-04T08:49:28;-0.70;1.00
7564;DHT22;3823;53.586;10.040;2023-12-04T08:51:54;-0.70;1.00
7564;DHT22;3823;53.586;10.040;2023-12-04T08:54:19;-0.60;1.00
7564;DHT22;3823;53.586;10.040;2023-12-04T08:56:45;-0.60;1.00
7564;DHT22;3823;53.586;10.040;2023-12-04T08:59:11;-0.60;1.00
7564;DHT22;3823;53.586;10.040;2023-12-04T09:01:38;-0.60;1.00
7564;DHT22;3823;53.586;10.040;2023-12-04T09:04:04;-0.60;1.00
7564;DHT22;3823;53.586;10.040;2023-12-04T09:06:29;-0.60;1.00
7564;DHT22;3823;53.586;10.040;2023-12-04T09:08:55;-0.60;1.00
7564;DHT22;3823;53.586;10.040;2023-12-04T09:11:20;-0.70;1.00
7564;DHT22;3823;53.586;10.040;2023-12-04T09:13:46;-0.70;1.00
7564;DHT22;3823;53.586;10.040;2023-12-04T09:16:11;-0.70;1.00
7564;DHT22;3823;53.586;10.040;2023-12-04T09:18:37;-0.70;1.00
7564;DHT22;3823;53.586;10.040;2023-12-04T09:21:03;-0.70;1.00
7564;DHT22;3823;53.586;10.040;2023-12-04T09:23:29;-0.80;1.00
7564;DHT22;3823;53.586;10.040;2023-12-04T09:25:57;-0.70;1.00
7564;DHT22;3823;53.586;10.040;2023-12-04T09:28:22;-0.80;1.00
7564;DHT22;3823;53.586;10.040;2023-12-04T09:30:48;-0.80;1.00
7564;DHT22;3823;53.586;10.040;2023-12-04T09:33:13;-0.80;1.00
7564;DHT22;3823;53.586;10.040;2023-12-04T09:35:39;-0.80;1.00
7564;DHT22;3823;53.586;10.040;2023-12-04T09:38:04;-0.80;1.00
7564;DHT22;3823;53.586;10.040;2023-12-04T09:40:30;-0.80;1.00
7564;DHT22;3823;53.586;10.040;2023-12-04T09:42:56;-0.80;1.00
7564;DHT22;3823;53.586;10.040;2023-12-04T09:45:23;-0.80;1.00
7564;DHT22;3823;53.586;10.040;2023-12-04T09:47:49;-0.80;1.00
7564;DHT22;3823;53.586;10.040;2023-12-04T09:50:16;-0.80;1.00
7564;DHT22;3823;53.586;10.040;2023-12-04T09:52:49;-0.80;1.00
7564;DHT22;3823;53.586;10.040;2023-12-04T09:55:18;-0.80;1.00
7564;DHT22;3823;53.586;10.040;2023-12-04T09:57:45;-0.80;1.00
7564;DHT22;3823;53.586;10.040;2023-12-04T10:00:15;-0.80;1.00
7564;DHT22;3823;53.586;10.040;2023-12-04T10:02:41;-0.80;1.00
7564;DHT22;3823;53.586;10.040;2023-12-04T10:05:10;-0.70;1.00
7564;DHT22;3823;53.586;10.040;2023-12-04T10:07:36;-0.70;1.00
7564;DHT22;3823;53.586;10.040;2023-12-04T10:10:02;-0.60;1.00
7564;DHT22;3823;53.586;10.040;2023-12-04T10:12:31;-0.60;1.00
7564;DHT22;3823;53.586;10.040;2023-12-04T10:15:11;-0.60;1.00
7564;DHT22;3823;53.586;10.040;2023-12-04T10:17:39;-0.50;1.00
7564;DHT22;3823;53.586;10.040;2023-12-04T10:20:13;-0.40;1.00
7564;DHT22;3823;53.586;10.040;2023-12-04T10:25:22;-0.30;1.00
7564;DHT22;3823;53.586;10.040;2023-12-04T10:27:49;-0.40;1.00
7564;DHT22;3823;53.586;10.040;2023-12-04T10:30:25;-0.30;1.00
7564;DHT22;3823;53.586;10.040;2023-12-04T10:32:58;-0.40;1.00
7564;DHT22;3823;53.586;10.040;2023-12-04T10:35:29;-0.30;1.00
7564;DHT22;3823;53.586;10.040;2023-12-04T10:37:59;-0.30;1.00
7564;DHT22;3823;53.586;10.040;2023-12-04T10:40:27;-0.20;1.00
7564;DHT22;3823;53.586;10.040;2023-12-04T10:45:37;-0.30;1.00
7564;DHT22;3823;53.586;10.040;2023-12-04T10:48:04;-0.30;1.00
7564;DHT22;3823;53.586;10.040;2023-12-04T10:50:34;-0.20;1.00
7564;DHT22;3823;53.586;10.040;2023-12-04T10:53:04;-0.20;1.00
7564;DHT22;3823;53.586;10.040;2023-12-04T10:55:33;-0.20;1.00
7564;DHT22;3823;53.586;10.040;2023-12-04T10:58:05;-0.20;1.00
7564;DHT22;3823;53.586;10.040;2023-12-04T11:00:35;-0.20;1.00
7564;DHT22;3823;53.586;10.040;2023-12-04T11:03:06;-0.20;1.00
7564;DHT22;3823;53.586;10.040;2023-12-04T11:05:37;-0.20;1.00
7564;DHT22;3823;53.586;10.040;2023-12-04T11:08:06;-0.10;1.00
7564;DHT22;3823;53.586;10.040;2023-12-04T11:10:33;-0.10;1.00
7564;DHT22;3823;53.586;10.040;2023-12-04T11:13:08;-0.10;1.00
7564;DHT22;3823;53.586;10.040;2023-12-04T11:15:42;-0.10;1.00
7564;DHT22;3823;53.586;10.040;2023-12-04T11:18:14;-0.10;1.00
7564;DHT22;3823;53.586;10.040;2023-12-04T11:20:48;-0.10;1.00
7564;DHT22;3823;53.586;10.040;2023-12-04T11:23:16;-0.10;1.00
7564;DHT22;3823;53.586;10.040;2023-12-04T11:25:43;-0.10;1.00
7564;DHT22;3823;53.586;10.040;2023-12-04T11:28:10;-0.10;1.00
7564;DHT22;3823;53.586;10.040;2023-12-04T11:30:36;-0.10;1.00
7564;DHT22;3823;53.586;10.040;2023-12-04T11:33:02;-0.10;1.00
7564;DHT22;3823;53.586;10.040;2023-12-04T11:35:29;0.00;1.00
7564;DHT22;3823;53.586;10.040;2023-12-04T11:37:56;0.00;1.00
7564;DHT22;3823;53.586;10.040;2023-12-04T11:40:22;-0.10;1.00
7564;DHT22;3823;53.586;10.040;2023-12-04T11:42:48;-0.10;1.00
7564;DHT22;3823;53.586;10.040;2023-12-04T11:45:20;0.00;1.00
7564;DHT22;3823;53.586;10.040;2023-12-04T11:47:54;0.00;1.00
7564;DHT22;3823;53.586;10.040;2023-12-04T11:50:20;0.10;1.00
7564;DHT22;3823;53.586;10.040;2023-12-04T11:52:47;0.10;1.00
7564;DHT22;3823;53.586;10.040;2023-12-04T11:55:16;0.10;1.00
7564;DHT22;3823;53.586;10.040;2023-12-04T11:57:42;0.10;1.00
7564;DHT22;3823;53.586;10.040;2023-12-04T12:00:09;0.10;1.00
7564;DHT22;3823;53.586;10.040;2023-12-04T12:02:36;0.10;1.00
7564;DHT22;3823;53.586;10.040;2023-12-04T12:05:03;0.00;1.00
7564;DHT22;3823;53.586;10.040;2023-12-04T12:07:28;0.00;1.00
7564;DHT22;3823;53.586;10.040;2023-12-04T12:09:55;0.00;1.00
7564;DHT22;3823;53.586;10.040;2023-12-04T12:12:21;0.00;1.00
7564;DHT22;3823;53.586;10.040;2023-12-04T12:14:46;0.00;1.00
7564;DHT22;3823;53.586;10.040;2023-12-04T12:17:12;0.00;1.00
7564;DHT22;3823;53.586;10.040;2023-12-04T12:19:39;0.00;1.00
7564;DHT22;3823;53.586;10.040;2023-12-04T12:22:04;0.00;1.00
7564;DHT22;3823;53.586;10.040;2023-12-04T12:24:30;0.10;1.00
7564;DHT22;3823;53.586;10.040;2023-12-04T12:26:56;0.10;1.00
7564;DHT22;3823;53.586;10.040;2023-12-04T12:29:21;0.00;1.00
7564;DHT22;3823;53.586;10.040;2023-12-04T12:31:47;0.00;1.00
7564;DHT22;3823;53.586;10.040;2023-12-04T12:34:13;0.00;1.00
7564;DHT22;3823;53.586;10.040;2023-12-04T12:36:40;0.00;1.00
7564;DHT22;3823;53.586;10.040;2023-12-04T12:39:06;0.00;1.00
7564;DHT22;3823;53.586;10.040;2023-12-04T12:41:34;0.10;1.00
7564;DHT22;3823;53.586;10.040;2023-12-04T12:44:01;0.10;1.00
7564;DHT22;3823;53.586;10.040;2023-12-04T12:46:27;0.10;1.00
7564;DHT22;3823;53.586;10.040;2023-12-04T12:48:53;0.10;1.00
7564;DHT22;3823;53.586;10.040;2023-12-04T12:51:18;0.00;1.00
7564;DHT22;3823;53.586;10.040;2023-12-04T12:53:44;0.10;1.00
7564;DHT22;3823;53.586;10.040;2023-12-04T12:56:10;0.10;1.00
7564;DHT22;3823;53.586;10.040;2023-12-04T12:58:36;0.10;1.00
7564;DHT22;3823;53.586;10.040;2023-12-04T13:01:01;0.10;1.00
7564;DHT22;3823;53.586;10.040;2023-12-04T13:03:28;0.10;1.00
7564;DHT22;3823;53.586;10.040;2023-12-04T13:05:55;0.10;1.00
7564;DHT22;3823;53.586;10.040;2023-12-04T13:08:20;0.20;1.00
7564;DHT22;3823;53.586;10.040;2023-12-04T13:10:46;0.20;1.00
7564;DHT22;3823;53.586;10.040;2023-12-04T13:13:13;0.20;1.00
7564;DHT22;3823;53.586;10.040;2023-12-04T13:15:38;0.30;1.00
7564;DHT22;3823;53.586;10.040;2023-12-04T13:18:04;0.20;1.00
7564;DHT22;3823;53.586;10.040;2023-12-04T13:20:30;0.20;1.00
7564;DHT22;3823;53.586;10.040;2023-12-04T13:22:55;0.20;1.00
7564;DHT22;3823;53.586;10.040;2023-12-04T13:25:21;0.20;1.00
7564;DHT22;3823;53.586;10.040;2023-12-04T13:27:48;0.20;1.00
7564;DHT22;3823;53.586;10.040;2023-12-04T13:30:14;0.20;1.00
7564;DHT22;3823;53.586;10.040;2023-12-04T13:32:39;0.20;1.00
7564;DHT22;3823;53.586;10.040;2023-12-04T13:35:05;0.20;1.00
7564;DHT22;3823;53.586;10.040;2023-12-04T13:37:32;0.20;1.00
7564;DHT22;3823;53.586;10.040;2023-12-04T13:39:58;0.20;1.00
7564;DHT22;3823;53.586;10.040;2023-12-04T13:42:24;0.20;1.00
7564;DHT22;3823;53.586;10.040;2023-12-04T13:45:09;0.10;1.00
7564;DHT22;3823;53.586;10.040;2023-12-04T13:47:40;0.10;1.00
7564;DHT22;3823;53.586;10.040;2023-12-04T13:50:07;0.20;1.00
7564;DHT22;3823;53.586;10.040;2023-12-04T13:52:37;0.10;1.00
7564;DHT22;3823;53.586;10.040;2023-12-04T13:55:05;0.10;1.00
7564;DHT22;3823;53.586;10.040;2023-12-04T13:57:42;0.20;1.00
7564;DHT22;3823;53.586;10.040;2023-12-04T14:00:37;0.10;1.00
7564;DHT22;3823;53.586;10.040;2023-12-04T14:03:03;0.10;1.00
7564;DHT22;3823;53.586;10.040;2023-12-04T14:05:33;0.10;1.00
7564;DHT22;3823;53.586;10.040;2023-12-04T14:07:59;0.10;1.00
7564;DHT22;3823;53.586;10.040;2023-12-04T14:10:26;0.10;1.00
7564;DHT22;3823;53.586;10.040;2023-12-04T14:12:52;0.10;1.00
7564;DHT22;3823;53.586;10.040;2023-12-04T14:15:18;0.10;1.00
7564;DHT22;3823;53.586;10.040;2023-12-04T14:17:43;0.10;1.00
7564;DHT22;3823;53.586;10.040;2023-12-04T14:20:09;0.10;1.00
7564;DHT22;3823;53.586;10.040;2023-12-04T14:22:42;0.10;1.00
7564;DHT22;3823;53.586;10.040;2023-12-04T14:25:08;0.00;1.00
7564;DHT22;3823;53.586;10.040;2023-12-04T14:27:34;0.10;1.00
7564;DHT22;3823;53.586;10.040;2023-12-04T14:30:00;0.10;1.00
7564;DHT22;3823;53.586;10.040;2023-12-04T14:32:27;0.00;1.00
7564;DHT22;3823;53.586;10.040;2023-12-04T14:34:52;0.00;1.00
7564;DHT22;3823;53.586;10.040;2023-12-04T14:37:18;0.10;1.00
7564;DHT22;3823;53.586;10.040;2023-12-04T14:39:43;0.00;1.00
7564;DHT22;3823;53.586;10.040;2023-12-04T14:42:10;0.00;1.00
7564;DHT22;3823;53.586;10.040;2023-12-04T14:44:36;0.00;1.00
7564;DHT22;3823;53.586;10.040;2023-12-04T14:47:02;-0.10;1.00
7564;DHT22;3823;53.586;10.040;2023-12-04T14:49:29;-0.10;1.00
7564;DHT22;3823;53.586;10.040;2023-12-04T14:51:55;-0.10;1.00
7564;DHT22;3823;53.586;10.040;2023-12-04T14:54:21;-0.10;1.00
7564;DHT22;3823;53.586;10.040;2023-12-04T14:56:50;-0.10;1.00
7564;DHT22;3823;53.586;10.040;2023-12-04T14:59:34;-0.10;1.00
7564;DHT22;3823;53.586;10.040;2023-12-04T15:02:18;-0.10;1.00
7564;DHT22;3823;53.586;10.040;2023-12-04T15:05:12;-0.10;1.00
7564;DHT22;3823;53.586;10.040;2023-12-04T15:07:58;-0.10;1.00
7564;DHT22;3823;53.586;10.040;2023-12-04T15:10:23;-0.10;1.00
7564;DHT22;3823;53.586;10.040;2023-12-04T15:13:15;-0.10;1.00
7564;DHT22;3823;53.586;10.040;2023-12-04T15:15:55;-0.10;1.00
7564;DHT22;3823;53.586;10.040;2023-12-04T15:18:42;-0.10;1.00
7564;DHT22;3823;53.586;10.040;2023-12-04T15:21:46;-0.10;1.00
7564;DHT22;3823;53.586;10.040;2023-12-04T15:24:11;-0.10;1.00
7564;DHT22;3823;53.586;10.040;2023-12-04T15:26:37;-0.20;1.00
7564;DHT22;3823;53.586;10.040;2023-12-04T15:29:02;-0.20;1.00
7564;DHT22;3823;53.586;10.040;2023-12-04T15:31:30;-0.20;1.00
7564;DHT22;3823;53.586;10.040;2023-12-04T15:33:55;-0.20;1.00
7564;DHT22;3823;53.586;10.040;2023-12-04T15:36:23;-0.20;1.00
7564;DHT22;3823;53.586;10.040;2023-12-04T15:38:48;-0.10;1.00
7564;DHT22;3823;53.586;10.040;2023-12-04T15:41:14;-0.10;1.00
7564;DHT22;3823;53.586;10.040;2023-12-04T15:43:41;-0.10;1.00
7564;DHT22;3823;53.586;10.040;2023-12-04T15:46:10;-0.10;1.00
7564;DHT22;3823;53.586;10.040;2023-12-04T15:48:35;-0.10;1.00
7564;DHT22;3823;53.586;10.040;2023-12-04T15:51:01;-0.10;1.00
7564;DHT22;3823;53.586;10.040;2023-12-04T15:53:26;-0.10;1.00
7564;DHT22;3823;53.586;10.040;2023-12-04T15:55:52;-0.10;1.00
7564;DHT22;3823;53.586;10.040;2023-12-04T15:58:17;-0.10;1.00
7564;DHT22;3823;53.586;10.040;2023-12-04T16:00:43;0.00;1.00
7564;DHT22;3823;53.586;10.040;2023-12-04T16:03:09;-0.10;1.00
7564;DHT22;3823;53.586;10.040;2023-12-04T16:05:34;0.00;1.00
7564;DHT22;3823;53.586;10.040;2023-12-04T16:08:00;0.00;1.00